← Previous June 18, 2024 9:08 AM

FTUS41 KBGM 160520
TAFITH
TAF
KITH 160520Z 1606/1706 VRB04KT P6SM FEW250
     FM161800 17008KT P6SM FEW070 SCT250=